createdAt,value
2022-12-18T00:02:12.983Z,-10.10
2022-12-18T00:04:39.631Z,-10.10
2022-12-18T00:07:06.138Z,-10.11
2022-12-18T00:09:40.120Z,-10.09
2022-12-18T00:14:45.006Z,-10.23
2022-12-18T00:17:11.472Z,-10.16
2022-12-18T00:19:38.018Z,-10.17
2022-12-18T00:22:04.470Z,-10.22
2022-12-18T00:24:31.100Z,-10.19
2022-12-18T00:26:57.548Z,-10.18
2022-12-18T00:29:24.125Z,-10.25
2022-12-18T00:31:50.715Z,-10.24
2022-12-18T00:34:17.351Z,-10.29
2022-12-18T00:36:43.853Z,-10.30
2022-12-18T00:39:11.892Z,-10.26
2022-12-18T00:41:57.494Z,-10.18
2022-12-18T00:44:23.973Z,-10.15
2022-12-18T00:46:50.379Z,-10.32
2022-12-18T00:49:19.712Z,-10.40
2022-12-18T00:51:46.918Z,-10.41
2022-12-18T00:54:13.499Z,-10.46
2022-12-18T00:56:48.446Z,-10.41
2022-12-18T00:59:15.695Z,-10.44
2022-12-18T01:01:42.213Z,-10.42
2022-12-18T01:04:09.170Z,-10.42
2022-12-18T01:06:35.612Z,-10.50
2022-12-18T01:09:02.511Z,-10.55
2022-12-18T01:11:29.143Z,-10.61
2022-12-18T01:13:56.053Z,-10.65
2022-12-18T01:16:23.011Z,-10.67
2022-12-18T01:18:54.553Z,-10.76
2022-12-18T01:21:23.200Z,-10.80
2022-12-18T01:23:53.166Z,-10.85
2022-12-18T01:26:20.050Z,-10.99
2022-12-18T01:28:46.448Z,-11.07
2022-12-18T01:31:12.882Z,-11.15
2022-12-18T01:33:39.675Z,-11.23
2022-12-18T01:36:06.556Z,-11.30
2022-12-18T01:38:36.084Z,-11.38
2022-12-18T01:41:05.984Z,-11.38
2022-12-18T01:43:46.015Z,-11.31
2022-12-18T01:46:13.401Z,-11.27
2022-12-18T01:48:40.873Z,-11.31
2022-12-18T01:51:10.544Z,-11.30
2022-12-18T01:53:40.473Z,-11.28
2022-12-18T01:56:08.069Z,-11.33
2022-12-18T01:58:40.607Z,-11.26
2022-12-18T02:01:07.192Z,-11.19
2022-12-18T02:03:33.758Z,-11.14
2022-12-18T02:06:20.579Z,-11.13
2022-12-18T02:08:59.596Z,-11.08
2022-12-18T02:11:41.191Z,-11.08
2022-12-18T02:14:17.832Z,-11.07
2022-12-18T02:16:49.330Z,-11.08
2022-12-18T02:19:53.790Z,-11.10
2022-12-18T02:22:40.771Z,-11.14
2022-12-18T02:25:32.696Z,-11.15
2022-12-18T02:28:02.996Z,-11.16
2022-12-18T02:30:34.693Z,-11.26
2022-12-18T02:33:05.143Z,-11.28
2022-12-18T02:35:35.263Z,-11.33
2022-12-18T02:38:04.209Z,-11.30
2022-12-18T02:40:32.177Z,-11.29
2022-12-18T02:43:24.764Z,-11.29
2022-12-18T02:45:55.337Z,-11.25
2022-12-18T02:48:26.766Z,-11.25
2022-12-18T02:51:15.933Z,-11.24
2022-12-18T02:53:54.323Z,-11.16
2022-12-18T02:56:31.876Z,-11.14
2022-12-18T02:59:24.936Z,-11.13
2022-12-18T03:02:30.164Z,-11.06
2022-12-18T03:05:21.724Z,-10.94
2022-12-18T03:08:23.340Z,-10.94
2022-12-18T03:11:01.397Z,-10.88
2022-12-18T03:13:53.852Z,-10.79
2022-12-18T03:16:29.387Z,-10.75
2022-12-18T03:19:00.931Z,-10.80
2022-12-18T03:21:41.681Z,-10.79
2022-12-18T03:24:10.389Z,-10.76
2022-12-18T03:26:41.855Z,-10.71
2022-12-18T03:29:14.110Z,-10.71
2022-12-18T03:31:43.556Z,-10.76
2022-12-18T03:34:28.082Z,-10.74
2022-12-18T03:36:54.568Z,-10.80
2022-12-18T03:39:21.468Z,-10.84
2022-12-18T03:41:53.688Z,-10.86
2022-12-18T03:44:40.930Z,-10.88
2022-12-18T03:47:25.855Z,-10.97
2022-12-18T03:50:08.317Z,-10.92
2022-12-18T03:52:43.669Z,-10.95
2022-12-18T03:55:11.846Z,-10.96
2022-12-18T03:57:39.911Z,-11.05
2022-12-18T04:00:13.816Z,-11.17
2022-12-18T04:02:45.333Z,-11.19
2022-12-18T04:05:14.134Z,-11.29
2022-12-18T04:07:41.337Z,-11.33
2022-12-18T04:10:09.851Z,-11.31
2022-12-18T04:12:38.709Z,-11.30
2022-12-18T04:15:06.289Z,-11.31
2022-12-18T04:17:32.864Z,-11.44
2022-12-18T04:19:59.360Z,-11.52
2022-12-18T04:22:25.914Z,-11.58
2022-12-18T04:24:52.469Z,-11.57
2022-12-18T04:27:19.160Z,-11.54
2022-12-18T04:29:45.828Z,-11.49
2022-12-18T04:32:12.327Z,-11.49
2022-12-18T04:34:38.852Z,-11.57
2022-12-18T04:37:05.376Z,-11.59
2022-12-18T04:39:31.931Z,-11.61
2022-12-18T04:41:58.407Z,-11.65
2022-12-18T04:44:27.946Z,-11.68
2022-12-18T04:46:54.470Z,-11.70
2022-12-18T04:49:21.047Z,-11.79
2022-12-18T04:51:47.480Z,-11.90
2022-12-18T04:54:14.172Z,-12.03
2022-12-18T04:56:40.876Z,-11.98
2022-12-18T04:59:07.333Z,-11.97
2022-12-18T05:01:35.051Z,-11.98
2022-12-18T05:04:02.937Z,-12.00
2022-12-18T05:06:29.607Z,-12.06
2022-12-18T05:08:56.291Z,-12.09
2022-12-18T05:11:22.983Z,-12.09
2022-12-18T05:13:49.572Z,-12.17
2022-12-18T05:16:16.312Z,-12.28
2022-12-18T05:18:43.197Z,-12.29
2022-12-18T05:21:09.924Z,-12.25
2022-12-18T05:23:36.855Z,-12.34
2022-12-18T05:26:05.512Z,-12.48
2022-12-18T05:28:35.266Z,-12.52
2022-12-18T05:31:03.893Z,-12.51
2022-12-18T05:33:33.071Z,-12.44
2022-12-18T05:36:04.267Z,-12.41
2022-12-18T05:38:33.149Z,-12.40
2022-12-18T05:40:59.875Z,-12.39
2022-12-18T05:43:27.301Z,-12.38
2022-12-18T05:45:54.423Z,-12.37
2022-12-18T05:48:22.010Z,-12.40
2022-12-18T05:50:50.984Z,-12.41
2022-12-18T05:53:20.482Z,-12.45
2022-12-18T05:55:47.887Z,-12.46
2022-12-18T05:58:15.363Z,-12.44
2022-12-18T06:00:45.639Z,-12.48
2022-12-18T06:03:13.536Z,-12.45
2022-12-18T06:05:42.416Z,-12.51
2022-12-18T06:08:09.335Z,-12.54
2022-12-18T06:10:36.322Z,-12.56
2022-12-18T06:13:02.972Z,-12.53
2022-12-18T06:15:29.490Z,-12.53
2022-12-18T06:17:55.966Z,-12.52
2022-12-18T06:20:22.771Z,-12.55
2022-12-18T06:22:49.543Z,-12.56
2022-12-18T06:25:16.575Z,-12.61
2022-12-18T06:27:43.163Z,-12.61
2022-12-18T06:30:11.121Z,-12.56
2022-12-18T06:32:37.787Z,-12.53
2022-12-18T06:35:04.942Z,-12.52
2022-12-18T06:37:32.489Z,-12.58
2022-12-18T06:39:59.057Z,-12.67
2022-12-18T06:42:25.969Z,-12.73
2022-12-18T06:44:52.618Z,-12.67
2022-12-18T06:47:19.786Z,-12.61
2022-12-18T06:49:46.308Z,-12.70
2022-12-18T06:52:12.933Z,-12.66
2022-12-18T06:54:39.429Z,-12.60
2022-12-18T06:57:05.949Z,-12.56
2022-12-18T06:59:32.460Z,-12.59
2022-12-18T07:01:59.094Z,-12.58
2022-12-18T07:04:31.343Z,-12.57
2022-12-18T07:06:58.400Z,-12.59
2022-12-18T07:09:25.470Z,-12.64
2022-12-18T07:11:52.736Z,-12.72
2022-12-18T07:14:19.232Z,-12.72
2022-12-18T07:16:45.792Z,-12.70
2022-12-18T07:19:12.318Z,-12.67
2022-12-18T07:21:38.810Z,-12.63
2022-12-18T07:24:06.073Z,-12.63
2022-12-18T07:26:32.786Z,-12.60
2022-12-18T07:28:59.334Z,-12.57
2022-12-18T07:31:26.791Z,-12.57
2022-12-18T07:33:53.559Z,-12.59
2022-12-18T07:36:20.252Z,-12.55
2022-12-18T07:38:51.278Z,-12.51
2022-12-18T07:41:18.060Z,-12.51
2022-12-18T07:43:44.796Z,-12.50
2022-12-18T07:46:14.861Z,-12.42
2022-12-18T07:48:46.268Z,-12.40
2022-12-18T07:51:18.318Z,-12.32
2022-12-18T07:53:45.249Z,-12.27
2022-12-18T07:56:29.470Z,-12.21
2022-12-18T07:58:57.912Z,-12.12
2022-12-18T08:01:24.846Z,-12.07
2022-12-18T08:03:52.808Z,-11.94
2022-12-18T08:06:19.721Z,-11.72
2022-12-18T08:08:49.854Z,-11.41
2022-12-18T08:11:16.996Z,-10.99
2022-12-18T08:13:43.657Z,-10.63
2022-12-18T08:16:10.249Z,-10.37
2022-12-18T08:18:38.543Z,-10.10
2022-12-18T08:21:11.980Z,-9.90
2022-12-18T08:23:42.623Z,-9.73
2022-12-18T08:26:10.286Z,-9.50
2022-12-18T08:28:36.966Z,-9.37
2022-12-18T08:31:03.689Z,-9.16
2022-12-18T08:33:30.261Z,-9.02
2022-12-18T08:35:56.749Z,-8.84
2022-12-18T08:38:24.243Z,-8.68
2022-12-18T08:40:50.800Z,-8.50
2022-12-18T08:43:35.937Z,-8.24
2022-12-18T08:46:02.629Z,-7.98
2022-12-18T08:48:29.187Z,-7.79
2022-12-18T08:51:00.064Z,-7.43
2022-12-18T08:53:32.709Z,-6.94
2022-12-18T08:56:02.340Z,-6.49
2022-12-18T08:58:28.812Z,-5.98
2022-12-18T09:00:55.364Z,-5.52
2022-12-18T09:03:23.675Z,-5.11
2022-12-18T09:05:50.295Z,-4.61
2022-12-18T09:08:16.802Z,-4.21
2022-12-18T09:10:45.358Z,-3.84
2022-12-18T09:13:13.022Z,-3.63
2022-12-18T09:15:44.164Z,-3.20
2022-12-18T09:18:10.716Z,-3.00
2022-12-18T09:20:38.274Z,-2.83
2022-12-18T09:23:05.135Z,-2.74
2022-12-18T09:25:34.071Z,-2.72
2022-12-18T09:28:01.215Z,-2.65
2022-12-18T09:30:28.501Z,-2.66
2022-12-18T09:32:55.203Z,-2.70
2022-12-18T09:35:21.917Z,-2.66
2022-12-18T09:37:48.623Z,-2.73
2022-12-18T09:40:21.344Z,-2.74
2022-12-18T09:43:00.353Z,-2.65
2022-12-18T09:45:27.234Z,-2.67
2022-12-18T09:47:56.497Z,-2.71
2022-12-18T09:50:22.934Z,-2.69
2022-12-18T09:52:53.520Z,-2.80
2022-12-18T09:55:35.145Z,-2.95
2022-12-18T09:58:32.774Z,-3.10
2022-12-18T10:00:59.490Z,-3.28
2022-12-18T10:03:26.586Z,-3.34
2022-12-18T10:06:19.516Z,-3.47
2022-12-18T10:09:04.839Z,-3.45
2022-12-18T10:11:49.436Z,-3.52
2022-12-18T10:14:37.728Z,-3.51
2022-12-18T10:17:13.237Z,-3.52
2022-12-18T10:19:50.290Z,-3.51
2022-12-18T10:22:43.104Z,-3.48
2022-12-18T10:25:22.704Z,-3.54
2022-12-18T10:27:52.699Z,-3.57
2022-12-18T10:30:22.082Z,-3.52
2022-12-18T10:32:48.586Z,-3.47
2022-12-18T10:35:25.418Z,-3.36
2022-12-18T10:38:02.221Z,-3.39
2022-12-18T10:40:29.149Z,-3.35
2022-12-18T10:43:15.465Z,-3.27
2022-12-18T10:45:43.197Z,-3.27
2022-12-18T10:48:21.856Z,-3.27
2022-12-18T10:53:38.598Z,-3.25
2022-12-18T10:56:07.537Z,-3.23
2022-12-18T10:58:39.474Z,-3.14
2022-12-18T11:01:12.380Z,-3.12
2022-12-18T11:03:46.182Z,-3.16
2022-12-18T11:06:25.417Z,-3.15
2022-12-18T11:08:59.629Z,-3.17
2022-12-18T11:11:26.667Z,-3.14
2022-12-18T11:14:13.437Z,-3.01
2022-12-18T11:17:23.812Z,-2.95
2022-12-18T11:19:40.916Z,-2.94
2022-12-18T11:22:31.379Z,-2.85
2022-12-18T11:25:34.440Z,-2.83
2022-12-18T11:28:05.455Z,-2.85
2022-12-18T11:30:37.323Z,-2.87
2022-12-18T11:33:12.088Z,-2.87
2022-12-18T11:35:44.670Z,-2.82
2022-12-18T11:38:30.651Z,-2.89
2022-12-18T11:41:22.099Z,-2.82
2022-12-18T11:43:56.950Z,-2.80
2022-12-18T11:46:37.221Z,-2.74
2022-12-18T11:49:29.623Z,-2.79
2022-12-18T11:52:23.907Z,-2.82
2022-12-18T11:54:56.283Z,-2.81
2022-12-18T11:57:35.927Z,-2.77
2022-12-18T12:00:02.528Z,-2.74
2022-12-18T12:02:57.441Z,-2.76
2022-12-18T12:05:39.257Z,-2.70
2022-12-18T12:08:08.766Z,-2.69
2022-12-18T12:11:07.189Z,-2.65
2022-12-18T12:13:55.608Z,-2.61
2022-12-18T12:16:30.865Z,-2.47
2022-12-18T12:19:31.634Z,-2.44
2022-12-18T12:22:28.479Z,-2.45
2022-12-18T12:25:04.472Z,-2.48
2022-12-18T12:27:43.079Z,-2.50
2022-12-18T12:30:19.658Z,-2.47
2022-12-18T12:33:06.202Z,-2.52
2022-12-18T12:35:47.756Z,-2.58
2022-12-18T12:38:25.033Z,-2.54
2022-12-18T12:41:03.279Z,-2.51
2022-12-18T12:43:40.360Z,-2.58
2022-12-18T12:46:12.552Z,-2.65
2022-12-18T12:48:50.780Z,-2.69
2022-12-18T12:51:21.920Z,-2.77
2022-12-18T12:53:50.058Z,-2.80
2022-12-18T12:56:20.239Z,-2.88
2022-12-18T12:59:03.679Z,-3.01
2022-12-18T13:01:39.446Z,-3.15
2022-12-18T13:04:30.731Z,-3.28
2022-12-18T13:07:21.417Z,-3.39
2022-12-18T13:16:09.134Z,-3.57
2022-12-18T13:18:36.280Z,-3.63
2022-12-18T13:21:03.826Z,-3.67
2022-12-18T13:23:41.630Z,-3.78
2022-12-18T13:26:11.763Z,-3.77
2022-12-18T13:28:47.301Z,-3.83
2022-12-18T13:31:42.094Z,-3.91
2022-12-18T13:34:27.761Z,-4.05
2022-12-18T13:36:57.496Z,-4.05
2022-12-18T13:39:35.863Z,-4.12
2022-12-18T13:42:05.641Z,-4.19
2022-12-18T13:47:38.456Z,-4.20
2022-12-18T13:50:47.996Z,-4.24
2022-12-18T13:53:25.134Z,-4.28
2022-12-18T13:55:52.971Z,-4.35
2022-12-18T13:58:19.905Z,-4.34
2022-12-18T14:00:46.751Z,-4.35
2022-12-18T14:03:27.371Z,-4.39
2022-12-18T14:06:02.105Z,-4.42
2022-12-18T14:08:34.820Z,-4.41
2022-12-18T14:11:02.497Z,-4.45
2022-12-18T14:13:33.302Z,-4.53
2022-12-18T14:16:03.854Z,-4.57
2022-12-18T14:18:39.897Z,-4.60
2022-12-18T14:21:07.882Z,-4.71
2022-12-18T14:23:42.084Z,-4.73
2022-12-18T14:26:30.608Z,-4.82
2022-12-18T14:28:58.999Z,-4.86
2022-12-18T14:31:27.914Z,-4.93
2022-12-18T14:33:54.653Z,-4.94
2022-12-18T14:36:29.991Z,-5.01
2022-12-18T14:38:58.483Z,-4.99
2022-12-18T14:41:26.573Z,-5.07
2022-12-18T14:47:03.041Z,-5.23
2022-12-18T14:49:35.261Z,-5.27
2022-12-18T14:52:07.468Z,-5.32
2022-12-18T14:54:38.413Z,-5.35
2022-12-18T14:57:36.692Z,-5.39
2022-12-18T15:00:09.071Z,-5.38
2022-12-18T15:02:37.316Z,-5.41
2022-12-18T15:05:19.985Z,-5.44
2022-12-18T15:07:57.967Z,-5.51
2022-12-18T15:10:27.966Z,-5.53
2022-12-18T15:12:57.249Z,-5.61
2022-12-18T15:15:38.784Z,-5.59
2022-12-18T15:18:15.115Z,-5.67
2022-12-18T15:24:19.196Z,-5.72
2022-12-18T15:26:45.793Z,-5.74
2022-12-18T15:29:24.498Z,-5.83
2022-12-18T15:32:21.103Z,-5.85
2022-12-18T15:34:47.610Z,-5.89
2022-12-18T15:37:14.138Z,-5.87
2022-12-18T15:39:40.729Z,-5.92
2022-12-18T15:42:28.763Z,-5.91
2022-12-18T15:44:55.322Z,-5.95
2022-12-18T15:47:21.797Z,-5.94
2022-12-18T15:49:48.374Z,-5.95
2022-12-18T15:52:15.034Z,-5.97
2022-12-18T15:55:00.107Z,-6.00
2022-12-18T15:57:27.394Z,-6.02
2022-12-18T15:59:59.299Z,-6.07
2022-12-18T16:02:26.732Z,-6.13
2022-12-18T16:04:53.748Z,-6.13
2022-12-18T16:07:25.137Z,-6.10
2022-12-18T16:09:52.849Z,-6.09
2022-12-18T16:12:23.341Z,-6.07
2022-12-18T16:14:49.981Z,-6.13
2022-12-18T16:17:16.668Z,-6.15
2022-12-18T16:19:43.320Z,-6.17
2022-12-18T16:22:23.116Z,-6.14
2022-12-18T16:24:50.942Z,-6.10
2022-12-18T16:27:17.911Z,-6.09
2022-12-18T16:29:44.484Z,-6.10
2022-12-18T16:32:15.719Z,-6.12
2022-12-18T16:34:43.300Z,-6.12
2022-12-18T16:37:11.501Z,-6.12
2022-12-18T16:39:39.357Z,-6.16
2022-12-18T16:42:19.792Z,-6.18
2022-12-18T16:44:47.336Z,-6.13
2022-12-18T16:47:15.365Z,-6.16
2022-12-18T16:49:42.819Z,-6.17
2022-12-18T16:52:09.427Z,-6.17
2022-12-18T16:54:36.758Z,-6.15
2022-12-18T16:57:05.530Z,-6.09
2022-12-18T16:59:32.751Z,-6.10
2022-12-18T17:01:59.443Z,-6.13
2022-12-18T17:04:26.224Z,-6.14
2022-12-18T17:06:53.956Z,-6.14
2022-12-18T17:09:25.374Z,-6.10
2022-12-18T17:11:53.709Z,-6.09
2022-12-18T17:14:23.480Z,-6.07
2022-12-18T17:17:07.394Z,-6.09
2022-12-18T17:19:36.920Z,-6.07
2022-12-18T17:22:04.412Z,-6.05
2022-12-18T17:24:34.787Z,-6.03
2022-12-18T17:27:02.288Z,-6.03
2022-12-18T17:29:28.852Z,-5.97
2022-12-18T17:31:55.406Z,-6.00
2022-12-18T17:34:24.194Z,-6.03
2022-12-18T17:36:50.586Z,-6.02
2022-12-18T17:39:19.683Z,-5.98
2022-12-18T17:41:46.604Z,-6.03
2022-12-18T17:44:13.051Z,-6.01
2022-12-18T17:46:39.764Z,-6.01
2022-12-18T17:49:06.433Z,-6.02
2022-12-18T17:51:33.233Z,-6.00
2022-12-18T17:54:00.021Z,-6.01
2022-12-18T17:56:26.890Z,-5.97
2022-12-18T17:58:53.783Z,-6.00
2022-12-18T18:01:23.694Z,-6.01
2022-12-18T18:03:52.866Z,-5.97
2022-12-18T18:06:20.564Z,-6.00
2022-12-18T18:08:47.148Z,-5.94
2022-12-18T18:11:38.080Z,-5.94
2022-12-18T18:14:15.857Z,-5.97
2022-12-18T18:16:44.882Z,-6.00
2022-12-18T18:19:14.570Z,-5.92
2022-12-18T18:21:43.876Z,-5.91
2022-12-18T18:24:13.107Z,-5.92
2022-12-18T18:26:41.652Z,-5.87
2022-12-18T18:29:08.971Z,-5.89
2022-12-18T18:31:41.297Z,-5.93
2022-12-18T18:34:08.753Z,-5.87
2022-12-18T18:36:35.311Z,-5.89
2022-12-18T18:39:02.143Z,-5.82
2022-12-18T18:41:30.011Z,-5.88
2022-12-18T18:43:57.831Z,-5.84
2022-12-18T18:46:25.519Z,-5.76
2022-12-18T18:48:52.100Z,-5.76
2022-12-18T18:51:21.464Z,-5.73
2022-12-18T18:53:51.114Z,-5.69
2022-12-18T18:59:07.677Z,-5.72
2022-12-18T19:01:34.219Z,-5.67
2022-12-18T19:04:04.208Z,-5.63
2022-12-18T19:06:31.595Z,-5.61
2022-12-18T19:09:01.401Z,-5.61
2022-12-18T19:11:46.927Z,-5.63
2022-12-18T19:14:15.110Z,-5.61
2022-12-18T19:16:42.882Z,-5.52
2022-12-18T19:19:09.985Z,-5.50
2022-12-18T19:21:38.176Z,-5.53
2022-12-18T19:24:05.593Z,-5.52
2022-12-18T19:26:32.260Z,-5.54
2022-12-18T19:29:03.923Z,-5.49
2022-12-18T19:31:35.532Z,-5.52
2022-12-18T19:34:04.979Z,-5.49
2022-12-18T19:36:32.535Z,-5.51
2022-12-18T19:39:01.524Z,-5.52
2022-12-18T19:41:32.014Z,-5.51
2022-12-18T19:44:00.131Z,-5.52
2022-12-18T19:46:28.758Z,-5.52
2022-12-18T19:48:55.248Z,-5.51
2022-12-18T19:51:25.750Z,-5.46
2022-12-18T19:53:58.185Z,-5.48
2022-12-18T19:56:28.664Z,-5.43
2022-12-18T19:58:55.262Z,-5.42
2022-12-18T20:01:24.026Z,-5.43
2022-12-18T20:03:52.409Z,-5.42
2022-12-18T20:06:46.081Z,-5.35
2022-12-18T20:09:12.641Z,-5.33
2022-12-18T20:11:41.892Z,-5.29
2022-12-18T20:14:13.764Z,-5.28
2022-12-18T20:16:41.080Z,-5.28
2022-12-18T20:19:08.670Z,-5.29
2022-12-18T20:21:36.027Z,-5.27
2022-12-18T20:24:02.681Z,-5.20
2022-12-18T20:26:29.688Z,-5.11
2022-12-18T20:28:56.168Z,-5.09
2022-12-18T20:31:22.809Z,-5.09
2022-12-18T20:33:49.883Z,-5.03
2022-12-18T20:36:22.636Z,-5.05
2022-12-18T20:38:55.700Z,-5.05
2022-12-18T20:41:25.695Z,-5.04
2022-12-18T20:43:53.885Z,-4.96
2022-12-18T20:46:20.860Z,-4.94
2022-12-18T20:48:48.201Z,-4.96
2022-12-18T20:51:20.076Z,-4.94
2022-12-18T20:53:47.314Z,-4.91
2022-12-18T20:56:21.322Z,-4.96
2022-12-18T20:58:49.169Z,-4.87
2022-12-18T21:01:18.833Z,-4.86
2022-12-18T21:03:46.137Z,-4.83
2022-12-18T21:06:15.359Z,-4.78
2022-12-18T21:08:42.119Z,-4.82
2022-12-18T21:11:35.736Z,-4.86
2022-12-18T21:14:03.224Z,-4.88
2022-12-18T21:16:30.009Z,-4.87
2022-12-18T21:18:56.525Z,-4.89
2022-12-18T21:21:27.017Z,-4.83
2022-12-18T21:23:54.638Z,-4.82
2022-12-18T21:26:26.642Z,-4.83
2022-12-18T21:28:58.938Z,-4.83
2022-12-18T21:31:29.310Z,-4.82
2022-12-18T21:34:01.813Z,-4.84
2022-12-18T21:36:29.615Z,-4.86
2022-12-18T21:38:57.075Z,-4.86
2022-12-18T21:41:43.845Z,-4.88
2022-12-18T21:44:12.907Z,-4.88
2022-12-18T21:46:42.325Z,-4.84
2022-12-18T21:49:09.985Z,-4.86
2022-12-18T21:51:37.142Z,-4.88
2022-12-18T21:54:03.790Z,-4.87
2022-12-18T21:56:50.784Z,-4.85
2022-12-18T21:59:20.142Z,-4.90
2022-12-18T22:01:47.641Z,-4.89
2022-12-18T22:04:15.904Z,-4.88
2022-12-18T22:06:43.290Z,-4.85
2022-12-18T22:09:12.151Z,-4.88
2022-12-18T22:11:38.699Z,-4.85
2022-12-18T22:14:05.283Z,-4.87
2022-12-18T22:16:31.894Z,-4.84
2022-12-18T22:18:58.435Z,-4.83
2022-12-18T22:21:29.252Z,-4.86
2022-12-18T22:24:00.152Z,-4.87
2022-12-18T22:26:28.410Z,-4.89
2022-12-18T22:29:13.447Z,-4.90
2022-12-18T22:31:40.719Z,-4.92
2022-12-18T22:34:08.258Z,-4.90
2022-12-18T22:36:37.743Z,-4.88
2022-12-18T22:39:07.123Z,-4.94
2022-12-18T22:41:33.786Z,-4.91
2022-12-18T22:44:00.330Z,-4.95
2022-12-18T22:46:27.267Z,-4.98
2022-12-18T22:48:53.914Z,-4.97
2022-12-18T22:51:20.771Z,-4.96
2022-12-18T22:53:47.785Z,-4.97
2022-12-18T22:56:21.143Z,-5.00
2022-12-18T22:58:51.767Z,-5.04
2022-12-18T23:01:21.883Z,-5.08
2022-12-18T23:06:25.582Z,-5.06
2022-12-18T23:08:55.961Z,-5.05
2022-12-18T23:11:22.748Z,-5.04
2022-12-18T23:13:49.243Z,-5.05
2022-12-18T23:16:18.164Z,-5.10
2022-12-18T23:18:45.540Z,-5.07
2022-12-18T23:21:18.374Z,-5.11
2022-12-18T23:23:45.421Z,-5.19
2022-12-18T23:26:20.686Z,-5.20
2022-12-18T23:28:48.264Z,-5.23
2022-12-18T23:31:19.031Z,-5.21
2022-12-18T23:33:47.196Z,-5.24
2022-12-18T23:36:14.508Z,-5.19
2022-12-18T23:38:41.426Z,-5.24
2022-12-18T23:41:10.676Z,-5.25
2022-12-18T23:43:38.313Z,-5.26
2022-12-18T23:46:23.055Z,-5.19
2022-12-18T23:48:50.321Z,-5.22
2022-12-18T23:51:18.171Z,-5.21
2022-12-18T23:53:44.943Z,-5.26
2022-12-18T23:56:13.724Z,-5.25
2022-12-18T23:58:41.193Z,-5.27
